createdAt,value
2023-05-14T00:00:17.511Z,100.00
2023-05-14T00:02:46.586Z,100.00
2023-05-14T00:05:14.299Z,100.00
2023-05-14T00:07:41.923Z,100.00
2023-05-14T00:10:10.358Z,100.00
2023-05-14T00:12:37.996Z,100.00
2023-05-14T00:15:06.468Z,100.00
2023-05-14T00:17:34.207Z,100.00
2023-05-14T00:20:03.534Z,100.00
2023-05-14T00:22:31.168Z,100.00
2023-05-14T00:24:58.788Z,100.00
2023-05-14T00:27:26.457Z,100.00
2023-05-14T00:29:54.068Z,100.00
2023-05-14T00:32:21.698Z,100.00
2023-05-14T00:34:49.314Z,100.00
2023-05-14T00:37:18.297Z,100.00
2023-05-14T00:39:45.884Z,100.00
2023-05-14T00:42:13.506Z,100.00
2023-05-14T00:44:41.152Z,100.00
2023-05-14T00:47:09.337Z,100.00
2023-05-14T00:49:37.067Z,100.00
2023-05-14T00:52:05.170Z,100.00
2023-05-14T00:54:34.178Z,100.00
2023-05-14T00:57:02.099Z,100.00
2023-05-14T00:59:29.900Z,100.00
2023-05-14T01:01:57.877Z,100.00
2023-05-14T01:04:25.574Z,100.00
2023-05-14T01:07:02.159Z,100.00
2023-05-14T01:09:37.362Z,100.00
2023-05-14T01:12:09.916Z,100.00
2023-05-14T01:14:43.419Z,100.00
2023-05-14T01:17:12.669Z,100.00
2023-05-14T01:19:42.498Z,100.00
2023-05-14T01:22:12.091Z,100.00
2023-05-14T01:24:39.899Z,100.00
2023-05-14T01:27:11.701Z,100.00
2023-05-14T01:29:42.915Z,100.00
2023-05-14T01:32:11.595Z,100.00
2023-05-14T01:34:40.970Z,100.00
2023-05-14T01:37:10.898Z,100.00
2023-05-14T01:39:39.060Z,100.00
2023-05-14T01:42:07.938Z,100.00
2023-05-14T01:44:35.773Z,100.00
2023-05-14T01:47:03.519Z,100.00
2023-05-14T01:49:31.178Z,100.00
2023-05-14T01:51:58.785Z,100.00
2023-05-14T01:54:27.731Z,100.00
2023-05-14T01:56:55.323Z,100.00
2023-05-14T01:59:22.935Z,100.00
2023-05-14T02:01:50.584Z,100.00
2023-05-14T02:04:18.397Z,100.00
2023-05-14T02:06:46.317Z,100.00
2023-05-14T02:09:13.953Z,100.00
2023-05-14T02:11:42.952Z,100.00
2023-05-14T02:14:10.771Z,100.00
2023-05-14T02:16:38.415Z,100.00
2023-05-14T02:19:06.420Z,100.00
2023-05-14T02:21:34.131Z,100.00
2023-05-14T02:24:01.799Z,100.00
2023-05-14T02:26:29.478Z,100.00
2023-05-14T02:28:58.724Z,100.00
2023-05-14T02:31:26.657Z,100.00
2023-05-14T02:33:54.371Z,100.00
2023-05-14T02:36:22.034Z,100.00
2023-05-14T02:38:49.714Z,100.00
2023-05-14T02:41:17.357Z,100.00
2023-05-14T02:43:45.073Z,100.00
2023-05-14T02:46:14.140Z,100.00
2023-05-14T02:48:41.957Z,100.00
2023-05-14T02:51:09.637Z,100.00
2023-05-14T02:53:37.269Z,100.00
2023-05-14T02:56:05.509Z,100.00
2023-05-14T02:58:33.141Z,100.00
2023-05-14T03:01:00.795Z,100.00
2023-05-14T03:03:30.730Z,100.00
2023-05-14T03:05:58.913Z,100.00
2023-05-14T03:08:26.763Z,100.00
2023-05-14T03:10:54.349Z,100.00
2023-05-14T03:13:21.975Z,100.00
2023-05-14T03:15:54.537Z,100.00
2023-05-14T03:18:22.403Z,100.00
2023-05-14T03:20:51.327Z,100.00
2023-05-14T03:23:18.951Z,100.00
2023-05-14T03:25:46.536Z,100.00
2023-05-14T03:28:14.137Z,100.00
2023-05-14T03:30:41.816Z,100.00
2023-05-14T03:33:09.535Z,100.00
2023-05-14T03:35:37.116Z,100.00
2023-05-14T03:38:06.125Z,100.00
2023-05-14T03:40:33.746Z,100.00
2023-05-14T03:43:01.376Z,100.00
2023-05-14T03:45:30.416Z,100.00
2023-05-14T03:47:58.161Z,100.00
2023-05-14T03:50:26.282Z,100.00
2023-05-14T03:52:54.964Z,100.00
2023-05-14T03:55:24.215Z,100.00
2023-05-14T03:57:51.863Z,100.00
2023-05-14T04:00:19.956Z,100.00
2023-05-14T04:02:47.599Z,100.00
2023-05-14T04:05:15.306Z,100.00
2023-05-14T04:07:42.934Z,100.00
2023-05-14T04:10:10.961Z,100.00
2023-05-14T04:12:39.925Z,100.00
2023-05-14T04:15:08.708Z,100.00
2023-05-14T04:17:36.337Z,100.00
2023-05-14T04:20:04.345Z,100.00
2023-05-14T04:22:32.056Z,100.00
2023-05-14T04:24:59.659Z,100.00
2023-05-14T04:27:27.750Z,100.00
2023-05-14T04:29:56.820Z,100.00
2023-05-14T04:32:24.621Z,100.00
2023-05-14T04:34:52.266Z,100.00
2023-05-14T04:37:19.928Z,100.00
2023-05-14T04:39:47.515Z,100.00
2023-05-14T04:42:15.132Z,100.00
2023-05-14T04:44:42.710Z,100.00
2023-05-14T04:47:11.684Z,100.00
2023-05-14T04:49:39.262Z,100.00
2023-05-14T04:52:07.443Z,100.00
2023-05-14T04:54:35.158Z,100.00
2023-05-14T04:57:03.447Z,100.00
2023-05-14T04:59:31.159Z,100.00
2023-05-14T05:01:58.805Z,100.00
2023-05-14T05:04:27.828Z,100.00
2023-05-14T05:06:55.506Z,100.00
2023-05-14T05:09:23.113Z,100.00
2023-05-14T05:11:50.771Z,100.00
2023-05-14T05:14:18.423Z,100.00
2023-05-14T05:16:46.144Z,100.00
2023-05-14T05:19:13.846Z,100.00
2023-05-14T05:21:42.943Z,100.00
2023-05-14T05:24:10.552Z,100.00
2023-05-14T05:26:38.242Z,100.00
2023-05-14T05:29:05.936Z,100.00
2023-05-14T05:31:33.640Z,100.00
2023-05-14T05:34:01.338Z,100.00
2023-05-14T05:36:28.920Z,100.00
2023-05-14T05:38:57.885Z,100.00
2023-05-14T05:41:26.534Z,100.00
2023-05-14T05:43:54.065Z,100.00
2023-05-14T05:46:21.792Z,100.00
2023-05-14T05:48:49.421Z,100.00
2023-05-14T05:51:17.030Z,100.00
2023-05-14T05:53:44.619Z,100.00
2023-05-14T05:56:13.651Z,100.00
2023-05-14T05:58:41.288Z,100.00
2023-05-14T06:01:08.973Z,100.00
2023-05-14T06:03:36.556Z,100.00
2023-05-14T06:06:04.190Z,100.00
2023-05-14T06:08:31.803Z,100.00
2023-05-14T06:10:59.439Z,100.00
2023-05-14T06:13:28.359Z,100.00
2023-05-14T06:15:55.938Z,100.00
2023-05-14T06:18:23.522Z,100.00
2023-05-14T06:20:51.138Z,100.00
2023-05-14T06:23:18.720Z,100.00
2023-05-14T06:25:46.741Z,100.00
2023-05-14T06:28:15.087Z,100.00
2023-05-14T06:30:44.072Z,100.00
2023-05-14T06:33:13.204Z,100.00
2023-05-14T06:35:40.874Z,100.00
2023-05-14T06:38:08.474Z,100.00
2023-05-14T06:40:36.080Z,100.00
2023-05-14T06:43:03.859Z,100.00
2023-05-14T06:45:33.114Z,100.00
2023-05-14T06:48:02.322Z,100.00
2023-05-14T06:50:30.017Z,100.00
2023-05-14T06:52:57.642Z,100.00
2023-05-14T06:55:25.272Z,100.00
2023-05-14T06:57:52.882Z,100.00
2023-05-14T07:00:21.984Z,100.00
2023-05-14T07:02:49.725Z,100.00
2023-05-14T07:05:18.721Z,100.00
2023-05-14T07:07:46.349Z,100.00
2023-05-14T07:10:13.890Z,100.00
2023-05-14T07:12:41.498Z,100.00
2023-05-14T07:15:10.419Z,100.00
2023-05-14T07:17:38.022Z,100.00
2023-05-14T07:20:06.770Z,100.00
2023-05-14T07:22:35.701Z,100.00
2023-05-14T07:25:03.310Z,100.00
2023-05-14T07:27:30.924Z,100.00
2023-05-14T07:29:58.550Z,100.00
2023-05-14T07:32:26.314Z,100.00
2023-05-14T07:34:53.943Z,100.00
2023-05-14T07:37:23.966Z,100.00
2023-05-14T07:39:53.300Z,100.00
2023-05-14T07:42:34.379Z,100.00
2023-05-14T07:45:03.162Z,100.00
2023-05-14T07:47:31.085Z,100.00
2023-05-14T07:49:59.002Z,100.00
2023-05-14T07:52:26.644Z,100.00
2023-05-14T07:54:55.722Z,100.00
2023-05-14T07:57:23.292Z,100.00
2023-05-14T07:59:50.986Z,100.00
2023-05-14T08:02:18.662Z,100.00
2023-05-14T08:04:46.397Z,100.00
2023-05-14T08:07:14.028Z,100.00
2023-05-14T08:09:41.597Z,100.00
2023-05-14T08:12:10.749Z,100.00
2023-05-14T08:14:38.373Z,100.00
2023-05-14T08:17:06.128Z,100.00
2023-05-14T08:19:33.879Z,100.00
2023-05-14T08:22:01.494Z,100.00
2023-05-14T08:24:29.192Z,100.00
2023-05-14T08:26:56.930Z,100.00
2023-05-14T08:29:25.954Z,100.00
2023-05-14T08:31:53.556Z,100.00
2023-05-14T08:34:21.258Z,100.00
2023-05-14T08:36:48.863Z,100.00
2023-05-14T08:39:16.471Z,100.00
2023-05-14T08:41:44.385Z,100.00
2023-05-14T08:44:14.382Z,100.00
2023-05-14T08:46:43.366Z,100.00
2023-05-14T08:49:26.504Z,100.00
2023-05-14T08:51:54.275Z,100.00
2023-05-14T08:54:23.768Z,100.00
2023-05-14T08:56:52.632Z,100.00
2023-05-14T08:59:20.445Z,100.00
2023-05-14T09:01:50.045Z,100.00
2023-05-14T09:04:21.178Z,100.00
2023-05-14T09:06:50.336Z,100.00
2023-05-14T09:09:18.118Z,100.00
2023-05-14T09:11:47.701Z,100.00
2023-05-14T09:14:15.993Z,100.00
2023-05-14T09:16:45.105Z,100.00
2023-05-14T09:19:15.740Z,100.00
2023-05-14T09:21:43.874Z,100.00
2023-05-14T09:24:20.187Z,100.00
2023-05-14T09:26:51.543Z,100.00
2023-05-14T09:29:19.192Z,100.00
2023-05-14T09:31:46.873Z,100.00
2023-05-14T09:34:25.003Z,100.00
2023-05-14T09:36:56.845Z,100.00
2023-05-14T09:39:24.887Z,100.00
2023-05-14T09:41:52.917Z,100.00
2023-05-14T09:44:20.786Z,100.00
2023-05-14T09:46:49.110Z,100.00
2023-05-14T09:49:18.658Z,100.00
2023-05-14T09:51:46.393Z,100.00
2023-05-14T09:54:13.976Z,100.00
2023-05-14T09:56:41.645Z,100.00
2023-05-14T09:59:09.280Z,100.00
2023-05-14T10:01:37.433Z,100.00
2023-05-14T10:04:08.000Z,100.00
2023-05-14T10:06:38.565Z,100.00
2023-05-14T10:09:08.541Z,100.00
2023-05-14T10:11:39.139Z,100.00
2023-05-14T10:14:09.481Z,100.00
2023-05-14T10:16:39.127Z,100.00
2023-05-14T10:19:09.508Z,100.00
2023-05-14T10:21:39.657Z,100.00
2023-05-14T10:24:09.270Z,100.00
2023-05-14T10:26:39.607Z,100.00
2023-05-14T10:29:07.506Z,100.00
2023-05-14T10:31:48.665Z,100.00
2023-05-14T10:34:37.190Z,100.00
2023-05-14T10:37:07.779Z,100.00
2023-05-14T10:39:42.484Z,100.00
2023-05-14T10:42:12.187Z,100.00
2023-05-14T10:44:44.106Z,100.00
2023-05-14T10:47:12.310Z,100.00
2023-05-14T10:49:43.901Z,100.00
2023-05-14T10:52:13.453Z,100.00
2023-05-14T10:54:41.087Z,100.00
2023-05-14T10:57:12.605Z,100.00
2023-05-14T10:59:43.380Z,100.00
2023-05-14T11:02:21.665Z,100.00
2023-05-14T11:05:00.443Z,100.00
2023-05-14T11:07:31.024Z,100.00
2023-05-14T11:10:02.559Z,100.00
2023-05-14T11:12:30.285Z,100.00
2023-05-14T11:14:59.050Z,100.00
2023-05-14T11:17:27.539Z,100.00
2023-05-14T11:19:55.891Z,100.00
2023-05-14T11:22:23.779Z,100.00
2023-05-14T11:24:52.836Z,100.00
2023-05-14T11:27:20.871Z,100.00
2023-05-14T11:29:49.756Z,100.00
2023-05-14T11:32:18.031Z,100.00
2023-05-14T11:34:46.863Z,100.00
2023-05-14T11:37:15.723Z,100.00
2023-05-14T11:39:48.889Z,100.00
2023-05-14T11:42:19.443Z,100.00
2023-05-14T11:44:48.996Z,100.00
2023-05-14T11:47:17.639Z,100.00
2023-05-14T11:49:45.849Z,100.00
2023-05-14T11:52:15.024Z,100.00
2023-05-14T11:54:43.760Z,100.00
2023-05-14T11:57:13.094Z,100.00
2023-05-14T11:59:42.080Z,100.00
2023-05-14T12:02:11.640Z,100.00
2023-05-14T12:04:39.562Z,100.00
2023-05-14T12:07:11.489Z,100.00
2023-05-14T12:09:42.599Z,100.00
2023-05-14T12:12:12.795Z,100.00
2023-05-14T12:14:43.542Z,100.00
2023-05-14T12:17:13.680Z,100.00
2023-05-14T12:19:42.617Z,100.00
2023-05-14T12:22:10.797Z,100.00
2023-05-14T12:24:39.241Z,100.00
2023-05-14T12:27:08.310Z,100.00
2023-05-14T12:29:40.049Z,100.00
2023-05-14T12:32:11.891Z,100.00
2023-05-14T12:34:40.408Z,100.00
2023-05-14T12:37:08.054Z,100.00
2023-05-14T12:39:35.742Z,100.00
2023-05-14T12:42:03.517Z,100.00
2023-05-14T12:44:31.275Z,100.00
2023-05-14T12:46:58.986Z,100.00
2023-05-14T12:49:28.069Z,100.00
2023-05-14T12:52:07.697Z,100.00
2023-05-14T12:54:43.605Z,100.00
2023-05-14T12:57:11.248Z,100.00
2023-05-14T12:59:38.857Z,98.27
2023-05-14T13:02:06.583Z,100.00
2023-05-14T13:04:35.638Z,95.47
2023-05-14T13:07:03.332Z,92.88
2023-05-14T13:09:30.937Z,99.47
2023-05-14T13:11:58.875Z,85.80
2023-05-14T13:14:26.811Z,89.66
2023-05-14T13:16:54.452Z,84.52
2023-05-14T13:19:22.079Z,87.31
2023-05-14T13:21:51.006Z,92.00
2023-05-14T13:24:18.630Z,93.11
2023-05-14T13:26:46.204Z,90.11
2023-05-14T13:29:13.811Z,85.12
2023-05-14T13:31:41.410Z,86.46
2023-05-14T13:34:10.248Z,86.60
2023-05-14T13:36:39.570Z,82.30
2023-05-14T13:39:08.606Z,78.05
2023-05-14T13:41:37.769Z,78.54
2023-05-14T13:44:05.829Z,80.47
2023-05-14T13:46:33.858Z,78.93
2023-05-14T13:49:02.013Z,81.15
2023-05-14T13:51:29.626Z,84.57
2023-05-14T13:53:57.232Z,84.92
2023-05-14T13:56:26.209Z,80.62
2023-05-14T13:58:54.072Z,84.35
2023-05-14T14:01:23.276Z,83.75
2023-05-14T14:03:51.074Z,80.91
2023-05-14T14:06:18.743Z,77.26
2023-05-14T14:08:46.389Z,78.50
2023-05-14T14:11:14.050Z,76.36
2023-05-14T14:13:45.106Z,76.28
2023-05-14T14:16:14.078Z,75.16
2023-05-14T14:18:43.290Z,80.13
2023-05-14T14:21:11.159Z,76.55
2023-05-14T14:23:38.906Z,78.29
2023-05-14T14:26:06.544Z,73.85
2023-05-14T14:28:34.158Z,72.31
2023-05-14T14:31:03.225Z,72.16
2023-05-14T14:33:30.889Z,76.48
2023-05-14T14:35:58.482Z,74.20
2023-05-14T14:38:26.260Z,72.72
2023-05-14T14:40:54.235Z,69.94
2023-05-14T14:43:21.884Z,67.43
2023-05-14T14:45:49.581Z,74.17
2023-05-14T14:48:27.998Z,71.06
2023-05-14T14:50:56.148Z,66.67
2023-05-14T14:53:24.594Z,68.45
2023-05-14T14:55:52.653Z,68.68
2023-05-14T14:58:21.174Z,66.59
2023-05-14T15:00:49.366Z,67.63
2023-05-14T15:03:17.194Z,70.32
2023-05-14T15:05:46.425Z,68.24
2023-05-14T15:08:14.137Z,72.73
2023-05-14T15:10:41.965Z,68.93
2023-05-14T15:13:10.218Z,69.07
2023-05-14T15:15:38.331Z,70.57
2023-05-14T15:18:06.263Z,67.24
2023-05-14T15:20:33.927Z,69.38
2023-05-14T15:23:03.174Z,67.64
2023-05-14T15:25:30.991Z,67.46
2023-05-14T15:27:58.754Z,66.88
2023-05-14T15:30:26.374Z,71.44
2023-05-14T15:32:54.039Z,68.72
2023-05-14T15:35:21.831Z,70.64
2023-05-14T15:37:49.559Z,67.80
2023-05-14T15:40:20.070Z,66.23
2023-05-14T15:42:47.814Z,66.96
2023-05-14T15:45:15.552Z,66.80
2023-05-14T15:47:44.238Z,66.83
2023-05-14T15:50:12.326Z,65.90
2023-05-14T15:52:41.545Z,64.19
2023-05-14T15:55:09.972Z,66.04
2023-05-14T15:57:39.082Z,66.09
2023-05-14T16:00:10.525Z,66.36
2023-05-14T16:02:38.287Z,65.80
2023-05-14T16:05:06.741Z,69.20
2023-05-14T16:07:34.541Z,67.96
2023-05-14T16:10:02.158Z,67.91
2023-05-14T16:12:29.792Z,66.47
2023-05-14T16:14:59.885Z,65.75
2023-05-14T16:17:27.688Z,65.17
2023-05-14T16:19:56.420Z,64.37
2023-05-14T16:22:24.432Z,66.55
2023-05-14T16:24:52.054Z,67.61
2023-05-14T16:27:19.706Z,67.26
2023-05-14T16:29:47.306Z,67.60
2023-05-14T16:32:16.374Z,66.21
2023-05-14T16:34:49.442Z,64.69
2023-05-14T16:37:17.354Z,64.83
2023-05-14T16:39:44.953Z,67.75
2023-05-14T16:42:12.701Z,68.58
2023-05-14T16:44:40.443Z,68.08
2023-05-14T16:47:08.095Z,69.60
2023-05-14T16:49:37.183Z,70.52
2023-05-14T16:52:05.367Z,71.25
2023-05-14T16:54:32.958Z,73.35
2023-05-14T16:57:00.579Z,75.82
2023-05-14T16:59:28.223Z,79.85
2023-05-14T17:01:56.167Z,79.43
2023-05-14T17:04:25.124Z,79.46
2023-05-14T17:06:54.182Z,79.58
2023-05-14T17:09:21.796Z,80.31
2023-05-14T17:11:49.447Z,81.18
2023-05-14T17:14:17.203Z,81.55
2023-05-14T17:16:44.838Z,81.98
2023-05-14T17:19:12.600Z,84.40
2023-05-14T17:21:40.275Z,85.38
2023-05-14T17:24:09.453Z,88.16
2023-05-14T17:26:37.677Z,89.67
2023-05-14T17:29:05.306Z,91.04
2023-05-14T17:31:33.027Z,92.58
2023-05-14T17:34:00.775Z,94.57
2023-05-14T17:36:28.832Z,95.23
2023-05-14T17:38:56.477Z,96.50
2023-05-14T17:41:25.494Z,97.84
2023-05-14T17:43:53.227Z,98.83
2023-05-14T17:46:21.521Z,99.73
2023-05-14T17:48:49.201Z,99.98
2023-05-14T17:51:16.839Z,100.00
2023-05-14T17:53:44.485Z,100.00
2023-05-14T17:56:12.598Z,100.00
2023-05-14T17:58:41.665Z,100.00
2023-05-14T18:01:09.423Z,100.00
2023-05-14T18:03:37.295Z,100.00
2023-05-14T18:06:05.722Z,100.00
2023-05-14T18:08:33.725Z,100.00
2023-05-14T18:11:03.570Z,100.00
2023-05-14T18:13:31.186Z,100.00
2023-05-14T18:16:01.158Z,100.00
2023-05-14T18:18:28.775Z,100.00
2023-05-14T18:20:56.445Z,100.00
2023-05-14T18:23:24.237Z,100.00
2023-05-14T18:25:51.883Z,100.00
2023-05-14T18:28:21.333Z,100.00
2023-05-14T18:30:49.784Z,100.00
2023-05-14T18:33:18.783Z,100.00
2023-05-14T18:35:46.439Z,100.00
2023-05-14T18:38:14.093Z,100.00
2023-05-14T18:40:41.838Z,100.00
2023-05-14T18:43:10.767Z,100.00
2023-05-14T18:45:39.008Z,100.00
2023-05-14T18:48:07.268Z,100.00
2023-05-14T18:50:38.681Z,100.00
2023-05-14T18:53:06.968Z,100.00
2023-05-14T18:55:35.970Z,100.00
2023-05-14T18:58:03.596Z,100.00
2023-05-14T19:00:31.213Z,100.00
2023-05-14T19:02:58.888Z,100.00
2023-05-14T19:05:26.703Z,100.00
2023-05-14T19:07:55.839Z,100.00
2023-05-14T19:10:23.533Z,100.00
2023-05-14T19:12:51.145Z,100.00
2023-05-14T19:15:18.898Z,100.00
2023-05-14T19:17:46.561Z,100.00
2023-05-14T19:20:14.207Z,100.00
2023-05-14T19:22:41.777Z,100.00
2023-05-14T19:25:12.121Z,100.00
2023-05-14T19:27:39.807Z,100.00
2023-05-14T19:30:08.527Z,100.00
2023-05-14T19:32:37.607Z,100.00
2023-05-14T19:35:06.054Z,100.00
2023-05-14T19:37:34.134Z,100.00
2023-05-14T19:40:01.846Z,100.00
2023-05-14T19:42:31.763Z,100.00
2023-05-14T19:44:59.359Z,100.00
2023-05-14T19:47:28.467Z,100.00
2023-05-14T19:49:56.249Z,100.00
2023-05-14T19:52:23.860Z,100.00
2023-05-14T19:54:51.450Z,100.00
2023-05-14T19:57:19.049Z,100.00
2023-05-14T19:59:48.028Z,100.00
2023-05-14T20:02:18.181Z,100.00
2023-05-14T20:04:47.393Z,100.00
2023-05-14T20:07:15.874Z,100.00
2023-05-14T20:09:43.609Z,100.00
2023-05-14T20:12:12.896Z,100.00
2023-05-14T20:14:41.065Z,100.00
2023-05-14T20:17:10.253Z,100.00
2023-05-14T20:19:37.967Z,100.00
2023-05-14T20:22:06.064Z,100.00
2023-05-14T20:24:33.663Z,100.00
2023-05-14T20:27:01.597Z,100.00
2023-05-14T20:29:29.650Z,100.00
2023-05-14T20:31:57.591Z,100.00
2023-05-14T20:34:26.607Z,100.00
2023-05-14T20:36:54.302Z,100.00
2023-05-14T20:39:22.164Z,100.00
2023-05-14T20:41:49.853Z,100.00
2023-05-14T20:44:18.470Z,100.00
2023-05-14T20:46:48.253Z,100.00
2023-05-14T20:49:15.963Z,100.00
2023-05-14T20:51:44.954Z,100.00
2023-05-14T20:54:12.565Z,100.00
2023-05-14T20:56:40.247Z,100.00
2023-05-14T20:59:07.852Z,100.00
2023-05-14T21:01:35.603Z,100.00
2023-05-14T21:04:03.388Z,100.00
2023-05-14T21:06:31.242Z,100.00
2023-05-14T21:09:00.501Z,100.00
2023-05-14T21:11:28.167Z,100.00
2023-05-14T21:13:55.801Z,100.00
2023-05-14T21:16:23.881Z,100.00
2023-05-14T21:18:51.545Z,100.00
2023-05-14T21:21:19.245Z,100.00
2023-05-14T21:23:46.933Z,100.00
2023-05-14T21:26:16.010Z,100.00
2023-05-14T21:28:43.663Z,100.00
2023-05-14T21:31:11.340Z,100.00
2023-05-14T21:33:40.736Z,100.00
2023-05-14T21:36:09.040Z,100.00
2023-05-14T21:38:36.821Z,100.00
2023-05-14T21:41:04.577Z,100.00
2023-05-14T21:43:33.578Z,100.00
2023-05-14T21:46:01.281Z,100.00
2023-05-14T21:48:29.386Z,100.00
2023-05-14T21:50:57.408Z,100.00
2023-05-14T21:53:25.075Z,100.00
2023-05-14T21:55:52.761Z,100.00
2023-05-14T21:58:20.335Z,100.00
2023-05-14T22:00:49.471Z,100.00
2023-05-14T22:03:17.150Z,100.00
2023-05-14T22:05:44.797Z,100.00
2023-05-14T22:08:12.374Z,100.00
2023-05-14T22:10:40.043Z,100.00
2023-05-14T22:13:07.623Z,100.00
2023-05-14T22:15:35.365Z,100.00
2023-05-14T22:18:04.518Z,100.00
2023-05-14T22:20:32.309Z,100.00
2023-05-14T22:22:59.961Z,100.00
2023-05-14T22:25:27.861Z,100.00
2023-05-14T22:27:55.527Z,100.00
2023-05-14T22:30:23.378Z,100.00
2023-05-14T22:32:51.048Z,100.00
2023-05-14T22:35:20.142Z,100.00
2023-05-14T22:37:47.765Z,100.00
2023-05-14T22:40:15.385Z,100.00
2023-05-14T22:42:43.069Z,100.00
2023-05-14T22:45:11.244Z,100.00
2023-05-14T22:47:38.934Z,100.00
2023-05-14T22:50:11.610Z,100.00
2023-05-14T22:52:41.215Z,100.00
2023-05-14T22:55:09.585Z,100.00
2023-05-14T22:57:37.235Z,100.00
2023-05-14T23:00:07.206Z,100.00
2023-05-14T23:02:34.841Z,100.00
2023-05-14T23:05:02.585Z,100.00
2023-05-14T23:07:30.211Z,100.00
2023-05-14T23:09:59.173Z,100.00
2023-05-14T23:12:26.822Z,100.00
2023-05-14T23:14:54.495Z,100.00
2023-05-14T23:17:22.221Z,100.00
2023-05-14T23:19:49.978Z,100.00
2023-05-14T23:22:17.709Z,100.00
2023-05-14T23:24:45.390Z,100.00
2023-05-14T23:27:14.441Z,100.00
2023-05-14T23:29:42.062Z,100.00
2023-05-14T23:32:09.750Z,100.00
2023-05-14T23:34:37.369Z,100.00
2023-05-14T23:37:05.188Z,100.00
2023-05-14T23:39:32.863Z,100.00
2023-05-14T23:42:00.542Z,100.00
2023-05-14T23:44:29.526Z,100.00
2023-05-14T23:46:57.212Z,100.00
2023-05-14T23:49:24.819Z,100.00
2023-05-14T23:51:52.452Z,100.00
2023-05-14T23:54:20.074Z,100.00
2023-05-14T23:56:47.756Z,100.00
2023-05-14T23:59:15.406Z,100.00
